sensor_id;sensor_type;location;lat;lon;timestamp;temperature;humidity
33863;DHT22;20158;51.436;-2.742;2023-02-28T00:00:14;6.70;53.50
33863;DHT22;20158;51.436;-2.742;2023-02-28T00:02:41;6.70;53.50
33863;DHT22;20158;51.436;-2.742;2023-02-28T00:05:09;6.70;53.60
33863;DHT22;20158;51.436;-2.742;2023-02-28T00:07:35;6.60;53.50
33863;DHT22;20158;51.436;-2.742;2023-02-28T00:10:02;6.60;53.50
33863;DHT22;20158;51.436;-2.742;2023-02-28T00:12:28;6.60;53.60
33863;DHT22;20158;51.436;-2.742;2023-02-28T00:14:54;6.50;53.50
33863;DHT22;20158;51.436;-2.742;2023-02-28T00:17:20;6.50;53.50
33863;DHT22;20158;51.436;-2.742;2023-02-28T00:19:49;6.50;53.60
33863;DHT22;20158;51.436;-2.742;2023-02-28T00:22:17;6.50;53.60
33863;DHT22;20158;51.436;-2.742;2023-02-28T00:24:44;6.40;53.50
33863;DHT22;20158;51.436;-2.742;2023-02-28T00:27:10;6.40;53.60
33863;DHT22;20158;51.436;-2.742;2023-02-28T00:29:36;6.40;53.60
33863;DHT22;20158;51.436;-2.742;2023-02-28T00:32:04;6.40;53.70
33863;DHT22;20158;51.436;-2.742;2023-02-28T00:34:30;6.30;53.50
33863;DHT22;20158;51.436;-2.742;2023-02-28T00:36:56;6.30;53.60
33863;DHT22;20158;51.436;-2.742;2023-02-28T00:39:22;6.30;53.70
33863;DHT22;20158;51.436;-2.742;2023-02-28T00:41:48;6.30;53.70
33863;DHT22;20158;51.436;-2.742;2023-02-28T00:44:14;6.30;53.80
33863;DHT22;20158;51.436;-2.742;2023-02-28T00:46:40;6.20;53.60
33863;DHT22;20158;51.436;-2.742;2023-02-28T00:49:05;6.20;53.70
33863;DHT22;20158;51.436;-2.742;2023-02-28T00:51:31;6.20;53.70
33863;DHT22;20158;51.436;-2.742;2023-02-28T00:53:57;6.20;53.80
33863;DHT22;20158;51.436;-2.742;2023-02-28T00:56:23;6.20;53.80
33863;DHT22;20158;51.436;-2.742;2023-02-28T00:58:49;6.20;53.80
33863;DHT22;20158;51.436;-2.742;2023-02-28T01:01:15;6.20;53.80
33863;DHT22;20158;51.436;-2.742;2023-02-28T01:03:41;6.20;53.90
33863;DHT22;20158;51.436;-2.742;2023-02-28T01:06:07;6.10;53.80
33863;DHT22;20158;51.436;-2.742;2023-02-28T01:08:33;6.10;53.80
33863;DHT22;20158;51.436;-2.742;2023-02-28T01:11:10;6.10;53.80
33863;DHT22;20158;51.436;-2.742;2023-02-28T01:13:40;6.10;53.90
33863;DHT22;20158;51.436;-2.742;2023-02-28T01:16:06;6.10;53.90
33863;DHT22;20158;51.436;-2.742;2023-02-28T01:18:34;6.10;53.90
33863;DHT22;20158;51.436;-2.742;2023-02-28T01:21:13;6.00;53.80
33863;DHT22;20158;51.436;-2.742;2023-02-28T01:23:39;6.10;54.10
33863;DHT22;20158;51.436;-2.742;2023-02-28T01:26:17;6.00;53.90
33863;DHT22;20158;51.436;-2.742;2023-02-28T01:28:43;6.00;53.90
33863;DHT22;20158;51.436;-2.742;2023-02-28T01:31:10;6.10;54.10
33863;DHT22;20158;51.436;-2.742;2023-02-28T01:33:38;6.10;54.10
33863;DHT22;20158;51.436;-2.742;2023-02-28T01:36:14;6.00;53.90
33863;DHT22;20158;51.436;-2.742;2023-02-28T01:38:40;6.10;54.10
33863;DHT22;20158;51.436;-2.742;2023-02-28T01:41:07;6.10;54.10
33863;DHT22;20158;51.436;-2.742;2023-02-28T01:46:39;6.10;54.20
33863;DHT22;20158;51.436;-2.742;2023-02-28T01:49:14;6.10;54.10
33863;DHT22;20158;51.436;-2.742;2023-02-28T01:51:46;6.10;54.20
33863;DHT22;20158;51.436;-2.742;2023-02-28T01:54:20;6.10;54.10
33863;DHT22;20158;51.436;-2.742;2023-02-28T01:56:50;6.10;54.10
33863;DHT22;20158;51.436;-2.742;2023-02-28T01:59:37;6.10;54.20
33863;DHT22;20158;51.436;-2.742;2023-02-28T02:02:06;6.10;54.20
33863;DHT22;20158;51.436;-2.742;2023-02-28T02:04:40;6.10;54.10
33863;DHT22;20158;51.436;-2.742;2023-02-28T02:07:08;6.00;54.00
33863;DHT22;20158;51.436;-2.742;2023-02-28T02:09:34;6.10;54.20
33863;DHT22;20158;51.436;-2.742;2023-02-28T02:12:06;6.00;54.00
33863;DHT22;20158;51.436;-2.742;2023-02-28T02:14:47;6.10;54.30
33863;DHT22;20158;51.436;-2.742;2023-02-28T02:17:31;6.00;54.20
33863;DHT22;20158;51.436;-2.742;2023-02-28T02:25:56;6.00;54.20
33863;DHT22;20158;51.436;-2.742;2023-02-28T02:34:31;6.00;54.20
33863;DHT22;20158;51.436;-2.742;2023-02-28T02:39:53;6.00;54.20
33863;DHT22;20158;51.436;-2.742;2023-02-28T02:42:54;6.00;54.20
33863;DHT22;20158;51.436;-2.742;2023-02-28T02:47:56;6.00;54.10
33863;DHT22;20158;51.436;-2.742;2023-02-28T02:50:29;6.00;54.20
33863;DHT22;20158;51.436;-2.742;2023-02-28T02:52:58;6.00;54.20
33863;DHT22;20158;51.436;-2.742;2023-02-28T02:55:28;6.10;54.30
33863;DHT22;20158;51.436;-2.742;2023-02-28T02:58:01;6.00;54.00
33863;DHT22;20158;51.436;-2.742;2023-02-28T03:00:35;6.00;54.00
33863;DHT22;20158;51.436;-2.742;2023-02-28T03:03:03;6.00;54.10
33863;DHT22;20158;51.436;-2.742;2023-02-28T03:05:34;6.00;54.20
33863;DHT22;20158;51.436;-2.742;2023-02-28T03:08:05;6.00;54.20
33863;DHT22;20158;51.436;-2.742;2023-02-28T03:10:40;6.00;54.20
33863;DHT22;20158;51.436;-2.742;2023-02-28T03:24:16;6.00;54.20
33863;DHT22;20158;51.436;-2.742;2023-02-28T03:26:43;6.00;54.20
33863;DHT22;20158;51.436;-2.742;2023-02-28T03:29:15;6.00;54.80
33863;DHT22;20158;51.436;-2.742;2023-02-28T03:31:50;6.00;54.20
33863;DHT22;20158;51.436;-2.742;2023-02-28T03:34:30;6.00;54.30
33863;DHT22;20158;51.436;-2.742;2023-02-28T03:37:05;6.00;54.30
33863;DHT22;20158;51.436;-2.742;2023-02-28T03:39:41;6.00;54.90
33863;DHT22;20158;51.436;-2.742;2023-02-28T03:42:18;6.00;54.20
33863;DHT22;20158;51.436;-2.742;2023-02-28T03:47:27;6.10;54.40
33863;DHT22;20158;51.436;-2.742;2023-02-28T03:50:03;6.10;54.50
33863;DHT22;20158;51.436;-2.742;2023-02-28T03:52:35;6.10;54.40
33863;DHT22;20158;51.436;-2.742;2023-02-28T03:55:07;6.10;54.40
33863;DHT22;20158;51.436;-2.742;2023-02-28T03:57:51;6.20;54.60
33863;DHT22;20158;51.436;-2.742;2023-02-28T04:00:21;6.10;54.40
33863;DHT22;20158;51.436;-2.742;2023-02-28T04:02:54;6.10;54.40
33863;DHT22;20158;51.436;-2.742;2023-02-28T04:05:21;6.20;54.60
33863;DHT22;20158;51.436;-2.742;2023-02-28T04:07:47;6.20;54.50
33863;DHT22;20158;51.436;-2.742;2023-02-28T04:10:15;6.20;54.50
33863;DHT22;20158;51.436;-2.742;2023-02-28T04:12:41;6.20;54.50
33863;DHT22;20158;51.436;-2.742;2023-02-28T04:15:07;6.30;54.70
33863;DHT22;20158;51.436;-2.742;2023-02-28T04:17:33;6.20;54.50
33863;DHT22;20158;51.436;-2.742;2023-02-28T04:19:59;6.30;54.70
33863;DHT22;20158;51.436;-2.742;2023-02-28T04:22:25;6.30;54.80
33863;DHT22;20158;51.436;-2.742;2023-02-28T04:24:52;6.30;54.80
33863;DHT22;20158;51.436;-2.742;2023-02-28T04:27:21;6.30;54.80
33863;DHT22;20158;51.436;-2.742;2023-02-28T04:29:47;6.30;55.30
33863;DHT22;20158;51.436;-2.742;2023-02-28T04:32:13;6.30;54.80
33863;DHT22;20158;51.436;-2.742;2023-02-28T04:34:39;6.30;54.80
33863;DHT22;20158;51.436;-2.742;2023-02-28T04:37:05;6.30;54.80
33863;DHT22;20158;51.436;-2.742;2023-02-28T04:39:35;6.40;55.00
33863;DHT22;20158;51.436;-2.742;2023-02-28T04:42:01;6.40;55.00
33863;DHT22;20158;51.436;-2.742;2023-02-28T04:44:27;6.40;55.00
33863;DHT22;20158;51.436;-2.742;2023-02-28T04:46:53;6.40;55.00
33863;DHT22;20158;51.436;-2.742;2023-02-28T04:49:19;6.40;55.00
33863;DHT22;20158;51.436;-2.742;2023-02-28T04:51:45;6.40;55.00
33863;DHT22;20158;51.436;-2.742;2023-02-28T04:54:11;6.40;55.00
33863;DHT22;20158;51.436;-2.742;2023-02-28T04:56:37;6.40;55.00
33863;DHT22;20158;51.436;-2.742;2023-02-28T04:59:03;6.50;55.20
33863;DHT22;20158;51.436;-2.742;2023-02-28T05:01:32;6.50;55.30
33863;DHT22;20158;51.436;-2.742;2023-02-28T05:04:00;6.50;55.30
33863;DHT22;20158;51.436;-2.742;2023-02-28T05:06:29;6.50;55.30
33863;DHT22;20158;51.436;-2.742;2023-02-28T05:08:55;6.50;55.30
33863;DHT22;20158;51.436;-2.742;2023-02-28T05:11:32;6.50;55.30
33863;DHT22;20158;51.436;-2.742;2023-02-28T05:14:14;6.50;55.30
33863;DHT22;20158;51.436;-2.742;2023-02-28T05:16:40;6.50;55.30
33863;DHT22;20158;51.436;-2.742;2023-02-28T05:19:06;6.50;55.30
33863;DHT22;20158;51.436;-2.742;2023-02-28T05:21:34;6.60;55.60
33863;DHT22;20158;51.436;-2.742;2023-02-28T05:24:03;6.50;55.40
33863;DHT22;20158;51.436;-2.742;2023-02-28T05:26:30;6.60;55.60
33863;DHT22;20158;51.436;-2.742;2023-02-28T05:28:56;6.60;55.60
33863;DHT22;20158;51.436;-2.742;2023-02-28T05:31:23;6.60;55.60
33863;DHT22;20158;51.436;-2.742;2023-02-28T05:33:48;6.60;55.60
33863;DHT22;20158;51.436;-2.742;2023-02-28T05:36:14;6.60;55.60
33863;DHT22;20158;51.436;-2.742;2023-02-28T05:38:40;6.60;55.60
33863;DHT22;20158;51.436;-2.742;2023-02-28T05:41:09;6.60;55.60
33863;DHT22;20158;51.436;-2.742;2023-02-28T05:43:35;6.60;55.60
33863;DHT22;20158;51.436;-2.742;2023-02-28T05:46:04;6.70;55.80
33863;DHT22;20158;51.436;-2.742;2023-02-28T05:48:31;6.60;55.60
33863;DHT22;20158;51.436;-2.742;2023-02-28T05:50:58;6.70;56.50
33863;DHT22;20158;51.436;-2.742;2023-02-28T05:53:24;6.70;55.80
33863;DHT22;20158;51.436;-2.742;2023-02-28T05:55:49;6.70;55.80
33863;DHT22;20158;51.436;-2.742;2023-02-28T05:58:15;6.70;55.80
33863;DHT22;20158;51.436;-2.742;2023-02-28T06:00:41;6.60;55.70
33863;DHT22;20158;51.436;-2.742;2023-02-28T06:03:07;6.60;55.70
33863;DHT22;20158;51.436;-2.742;2023-02-28T06:05:33;6.70;55.90
33863;DHT22;20158;51.436;-2.742;2023-02-28T06:07:59;6.60;55.70
33863;DHT22;20158;51.436;-2.742;2023-02-28T06:10:25;6.60;55.80
33863;DHT22;20158;51.436;-2.742;2023-02-28T06:12:51;6.60;55.80
33863;DHT22;20158;51.436;-2.742;2023-02-28T06:15:17;6.60;55.90
33863;DHT22;20158;51.436;-2.742;2023-02-28T06:17:43;6.60;55.90
33863;DHT22;20158;51.436;-2.742;2023-02-28T06:20:11;6.50;55.80
33863;DHT22;20158;51.436;-2.742;2023-02-28T06:22:39;6.60;56.00
33863;DHT22;20158;51.436;-2.742;2023-02-28T06:25:06;6.50;55.80
33863;DHT22;20158;51.436;-2.742;2023-02-28T06:27:33;6.50;55.80
33863;DHT22;20158;51.436;-2.742;2023-02-28T06:29:59;6.50;55.90
33863;DHT22;20158;51.436;-2.742;2023-02-28T06:32:25;6.50;56.30
33863;DHT22;20158;51.436;-2.742;2023-02-28T06:34:51;6.50;56.00
33863;DHT22;20158;51.436;-2.742;2023-02-28T06:37:17;6.40;55.80
33863;DHT22;20158;51.436;-2.742;2023-02-28T06:39:43;6.40;55.90
33863;DHT22;20158;51.436;-2.742;2023-02-28T06:42:09;6.40;55.90
33863;DHT22;20158;51.436;-2.742;2023-02-28T06:44:35;6.30;55.80
33863;DHT22;20158;51.436;-2.742;2023-02-28T06:47:03;6.30;55.90
33863;DHT22;20158;51.436;-2.742;2023-02-28T06:49:32;6.30;55.90
33863;DHT22;20158;51.436;-2.742;2023-02-28T06:51:58;6.30;55.90
33863;DHT22;20158;51.436;-2.742;2023-02-28T06:54:24;6.20;55.80
33863;DHT22;20158;51.436;-2.742;2023-02-28T06:56:50;6.20;55.90
33863;DHT22;20158;51.436;-2.742;2023-02-28T06:59:17;6.20;55.90
33863;DHT22;20158;51.436;-2.742;2023-02-28T07:01:43;6.20;56.00
33863;DHT22;20158;51.436;-2.742;2023-02-28T07:04:09;6.20;56.00
33863;DHT22;20158;51.436;-2.742;2023-02-28T07:06:35;6.10;56.00
33863;DHT22;20158;51.436;-2.742;2023-02-28T07:09:00;6.20;56.60
33863;DHT22;20158;51.436;-2.742;2023-02-28T07:11:27;6.30;57.50
33863;DHT22;20158;51.436;-2.742;2023-02-28T07:13:54;6.50;58.30
33863;DHT22;20158;51.436;-2.742;2023-02-28T07:16:20;6.70;58.90
33863;DHT22;20158;51.436;-2.742;2023-02-28T07:18:46;6.90;59.40
33863;DHT22;20158;51.436;-2.742;2023-02-28T07:21:12;7.10;59.80
33863;DHT22;20158;51.436;-2.742;2023-02-28T07:23:39;7.30;60.10
33863;DHT22;20158;51.436;-2.742;2023-02-28T07:26:07;7.60;60.60
33863;DHT22;20158;51.436;-2.742;2023-02-28T07:28:36;7.80;60.90
33863;DHT22;20158;51.436;-2.742;2023-02-28T07:31:05;8.00;61.10
33863;DHT22;20158;51.436;-2.742;2023-02-28T07:33:31;8.20;61.30
33863;DHT22;20158;51.436;-2.742;2023-02-28T07:36:05;8.40;61.50
33863;DHT22;20158;51.436;-2.742;2023-02-28T07:38:34;8.60;61.80
33863;DHT22;20158;51.436;-2.742;2023-02-28T07:41:01;8.80;61.80
33863;DHT22;20158;51.436;-2.742;2023-02-28T07:43:30;8.90;61.70
33863;DHT22;20158;51.436;-2.742;2023-02-28T07:46:05;9.10;61.80
33863;DHT22;20158;51.436;-2.742;2023-02-28T07:48:31;9.20;61.70
33863;DHT22;20158;51.436;-2.742;2023-02-28T07:50:58;9.20;61.40
33863;DHT22;20158;51.436;-2.742;2023-02-28T07:53:25;9.20;61.30
33863;DHT22;20158;51.436;-2.742;2023-02-28T07:55:54;9.20;61.20
33863;DHT22;20158;51.436;-2.742;2023-02-28T07:58:19;9.10;61.10
33863;DHT22;20158;51.436;-2.742;2023-02-28T08:00:45;9.00;61.00
33863;DHT22;20158;51.436;-2.742;2023-02-28T08:03:12;9.00;61.00
33863;DHT22;20158;51.436;-2.742;2023-02-28T08:05:41;8.90;60.90
33863;DHT22;20158;51.436;-2.742;2023-02-28T08:08:07;8.90;61.10
33863;DHT22;20158;51.436;-2.742;2023-02-28T08:10:33;8.80;60.90
33863;DHT22;20158;51.436;-2.742;2023-02-28T08:13:00;8.70;60.80
33863;DHT22;20158;51.436;-2.742;2023-02-28T08:15:26;8.70;60.80
33863;DHT22;20158;51.436;-2.742;2023-02-28T08:17:52;8.60;60.60
33863;DHT22;20158;51.436;-2.742;2023-02-28T08:20:18;8.60;60.60
33863;DHT22;20158;51.436;-2.742;2023-02-28T08:22:44;8.60;60.60
33863;DHT22;20158;51.436;-2.742;2023-02-28T08:25:10;8.60;60.60
33863;DHT22;20158;51.436;-2.742;2023-02-28T08:27:36;8.60;60.50
33863;DHT22;20158;51.436;-2.742;2023-02-28T08:30:03;8.60;60.40
33863;DHT22;20158;51.436;-2.742;2023-02-28T08:32:29;8.60;60.30
33863;DHT22;20158;51.436;-2.742;2023-02-28T08:34:55;8.70;60.40
33863;DHT22;20158;51.436;-2.742;2023-02-28T08:37:20;8.70;60.30
33863;DHT22;20158;51.436;-2.742;2023-02-28T08:39:46;8.70;60.20
33863;DHT22;20158;51.436;-2.742;2023-02-28T08:42:12;8.80;60.30
33863;DHT22;20158;51.436;-2.742;2023-02-28T08:44:38;8.80;60.70
33863;DHT22;20158;51.436;-2.742;2023-02-28T08:47:04;8.90;60.70
33863;DHT22;20158;51.436;-2.742;2023-02-28T08:49:30;9.00;60.20
33863;DHT22;20158;51.436;-2.742;2023-02-28T08:51:56;9.10;60.20
33863;DHT22;20158;51.436;-2.742;2023-02-28T08:54:23;9.20;60.10
33863;DHT22;20158;51.436;-2.742;2023-02-28T08:56:49;9.30;60.10
33863;DHT22;20158;51.436;-2.742;2023-02-28T08:59:15;9.40;60.10
33863;DHT22;20158;51.436;-2.742;2023-02-28T09:01:41;9.40;59.90
33863;DHT22;20158;51.436;-2.742;2023-02-28T09:04:09;9.50;59.80
33863;DHT22;20158;51.436;-2.742;2023-02-28T09:06:36;9.60;59.80
33863;DHT22;20158;51.436;-2.742;2023-02-28T09:09:02;9.70;59.80
33863;DHT22;20158;51.436;-2.742;2023-02-28T09:11:31;9.80;59.80
33863;DHT22;20158;51.436;-2.742;2023-02-28T09:13:58;9.80;59.60
33863;DHT22;20158;51.436;-2.742;2023-02-28T09:16:26;9.90;59.70
33863;DHT22;20158;51.436;-2.742;2023-02-28T09:18:52;9.90;59.50
33863;DHT22;20158;51.436;-2.742;2023-02-28T09:21:19;10.00;59.60
33863;DHT22;20158;51.436;-2.742;2023-02-28T09:23:47;10.00;59.40
33863;DHT22;20158;51.436;-2.742;2023-02-28T09:26:18;10.10;59.50
33863;DHT22;20158;51.436;-2.742;2023-02-28T09:28:44;10.10;59.40
33863;DHT22;20158;51.436;-2.742;2023-02-28T09:31:16;10.10;59.30
33863;DHT22;20158;51.436;-2.742;2023-02-28T09:33:42;10.10;59.30
33863;DHT22;20158;51.436;-2.742;2023-02-28T09:36:08;10.10;59.20
33863;DHT22;20158;51.436;-2.742;2023-02-28T09:38:34;10.20;59.30
33863;DHT22;20158;51.436;-2.742;2023-02-28T09:41:03;10.20;59.20
33863;DHT22;20158;51.436;-2.742;2023-02-28T09:43:37;10.30;59.20
33863;DHT22;20158;51.436;-2.742;2023-02-28T09:48:50;10.40;59.10
33863;DHT22;20158;51.436;-2.742;2023-02-28T09:52:19;10.50;59.00
33863;DHT22;20158;51.436;-2.742;2023-02-28T09:54:30;10.50;58.80
33863;DHT22;20158;51.436;-2.742;2023-02-28T09:57:06;10.60;58.90
33863;DHT22;20158;51.436;-2.742;2023-02-28T10:02:24;10.80;58.80
33863;DHT22;20158;51.436;-2.742;2023-02-28T10:05:00;10.90;58.80
33863;DHT22;20158;51.436;-2.742;2023-02-28T10:08:04;11.00;58.70
33863;DHT22;20158;51.436;-2.742;2023-02-28T10:13:29;11.30;58.70
33863;DHT22;20158;51.436;-2.742;2023-02-28T10:16:03;11.40;58.50
33863;DHT22;20158;51.436;-2.742;2023-02-28T10:18:53;11.60;58.60
33863;DHT22;20158;51.436;-2.742;2023-02-28T10:21:26;11.70;58.50
33863;DHT22;20158;51.436;-2.742;2023-02-28T10:24:02;11.80;58.30
33863;DHT22;20158;51.436;-2.742;2023-02-28T10:26:31;11.90;58.30
33863;DHT22;20158;51.436;-2.742;2023-02-28T10:28:57;11.90;58.00
33863;DHT22;20158;51.436;-2.742;2023-02-28T10:31:23;12.00;58.00
33863;DHT22;20158;51.436;-2.742;2023-02-28T10:33:48;12.10;58.00
33863;DHT22;20158;51.436;-2.742;2023-02-28T10:36:19;12.10;57.70
33863;DHT22;20158;51.436;-2.742;2023-02-28T10:38:46;12.20;57.80
33863;DHT22;20158;51.436;-2.742;2023-02-28T10:41:14;12.20;57.70
33863;DHT22;20158;51.436;-2.742;2023-02-28T10:43:42;12.30;57.60
33863;DHT22;20158;51.436;-2.742;2023-02-28T10:48:40;12.40;57.30
33863;DHT22;20158;51.436;-2.742;2023-02-28T10:51:14;12.40;57.10
33863;DHT22;20158;51.436;-2.742;2023-02-28T10:53:50;12.50;57.10
33863;DHT22;20158;51.436;-2.742;2023-02-28T10:56:23;12.60;57.00
33863;DHT22;20158;51.436;-2.742;2023-02-28T10:58:59;12.60;56.70
33863;DHT22;20158;51.436;-2.742;2023-02-28T11:03:58;12.70;56.60
33863;DHT22;20158;51.436;-2.742;2023-02-28T11:06:31;12.70;56.60
33863;DHT22;20158;51.436;-2.742;2023-02-28T11:09:15;12.80;56.50
33863;DHT22;20158;51.436;-2.742;2023-02-28T11:11:45;12.80;56.20
33863;DHT22;20158;51.436;-2.742;2023-02-28T11:16:45;13.00;56.20
33863;DHT22;20158;51.436;-2.742;2023-02-28T11:19:20;13.00;56.10
33863;DHT22;20158;51.436;-2.742;2023-02-28T11:21:56;13.00;56.10
33863;DHT22;20158;51.436;-2.742;2023-02-28T11:24:26;13.00;56.10
33863;DHT22;20158;51.436;-2.742;2023-02-28T11:26:53;13.00;56.00
33863;DHT22;20158;51.436;-2.742;2023-02-28T11:29:20;13.10;55.90
33863;DHT22;20158;51.436;-2.742;2023-02-28T11:34:38;13.10;55.40
33863;DHT22;20158;51.436;-2.742;2023-02-28T11:37:08;13.10;56.10
33863;DHT22;20158;51.436;-2.742;2023-02-28T11:39:36;13.20;55.60
33863;DHT22;20158;51.436;-2.742;2023-02-28T11:42:08;13.20;55.40
33863;DHT22;20158;51.436;-2.742;2023-02-28T11:47:31;13.30;55.10
33863;DHT22;20158;51.436;-2.742;2023-02-28T11:55:57;13.60;55.10
33863;DHT22;20158;51.436;-2.742;2023-02-28T12:07:00;13.80;55.00
33863;DHT22;20158;51.436;-2.742;2023-02-28T12:12:23;13.90;54.70
33863;DHT22;20158;51.436;-2.742;2023-02-28T12:28:12;14.40;54.10
33863;DHT22;20158;51.436;-2.742;2023-02-28T12:30:49;14.60;54.20
33863;DHT22;20158;51.436;-2.742;2023-02-28T12:33:17;14.60;54.00
33863;DHT22;20158;51.436;-2.742;2023-02-28T12:35:59;14.60;53.90
33863;DHT22;20158;51.436;-2.742;2023-02-28T12:38:34;14.60;53.60
33863;DHT22;20158;51.436;-2.742;2023-02-28T12:41:12;14.50;53.60
33863;DHT22;20158;51.436;-2.742;2023-02-28T12:43:46;14.50;53.70
33863;DHT22;20158;51.436;-2.742;2023-02-28T12:46:24;14.50;53.70
33863;DHT22;20158;51.436;-2.742;2023-02-28T12:48:56;14.50;53.70
33863;DHT22;20158;51.436;-2.742;2023-02-28T12:51:24;14.50;53.60
33863;DHT22;20158;51.436;-2.742;2023-02-28T12:54:19;14.50;53.50
33863;DHT22;20158;51.436;-2.742;2023-02-28T12:57:06;14.60;53.40
33863;DHT22;20158;51.436;-2.742;2023-02-28T12:59:50;14.70;53.40
33863;DHT22;20158;51.436;-2.742;2023-02-28T13:05:41;14.90;53.80
33863;DHT22;20158;51.436;-2.742;2023-02-28T13:22:40;15.50;53.70
33863;DHT22;20158;51.436;-2.742;2023-02-28T13:27:52;15.60;52.60
33863;DHT22;20158;51.436;-2.742;2023-02-28T13:38:46;15.70;52.40
33863;DHT22;20158;51.436;-2.742;2023-02-28T13:44:24;15.50;52.30
33863;DHT22;20158;51.436;-2.742;2023-02-28T13:54:59;15.00;52.30
33863;DHT22;20158;51.436;-2.742;2023-02-28T14:03:10;14.70;52.30
33863;DHT22;20158;51.436;-2.742;2023-02-28T14:05:38;14.70;52.60
33863;DHT22;20158;51.436;-2.742;2023-02-28T14:10:46;14.70;52.80
33863;DHT22;20158;51.436;-2.742;2023-02-28T14:15:55;14.70;52.60
33863;DHT22;20158;51.436;-2.742;2023-02-28T14:18:29;14.70;52.60
33863;DHT22;20158;51.436;-2.742;2023-02-28T14:21:09;14.60;52.50
33863;DHT22;20158;51.436;-2.742;2023-02-28T14:31:58;14.30;52.60
33863;DHT22;20158;51.436;-2.742;2023-02-28T14:37:01;14.20;52.70
33863;DHT22;20158;51.436;-2.742;2023-02-28T14:39:28;14.20;52.70
33863;DHT22;20158;51.436;-2.742;2023-02-28T14:41:57;14.20;52.60
33863;DHT22;20158;51.436;-2.742;2023-02-28T14:44:29;14.30;52.70
33863;DHT22;20158;51.436;-2.742;2023-02-28T14:46:57;14.30;52.70
33863;DHT22;20158;51.436;-2.742;2023-02-28T14:49:41;14.30;52.70
33863;DHT22;20158;51.436;-2.742;2023-02-28T14:52:20;14.30;52.70
33863;DHT22;20158;51.436;-2.742;2023-02-28T14:54:59;14.20;52.50
33863;DHT22;20158;51.436;-2.742;2023-02-28T14:57:32;14.20;52.60
33863;DHT22;20158;51.436;-2.742;2023-02-28T15:00:15;14.20;52.70
33863;DHT22;20158;51.436;-2.742;2023-02-28T15:02:42;14.10;52.60
33863;DHT22;20158;51.436;-2.742;2023-02-28T15:07:47;14.10;52.80
33863;DHT22;20158;51.436;-2.742;2023-02-28T15:10:25;14.20;53.00
33863;DHT22;20158;51.436;-2.742;2023-02-28T15:13:10;14.20;53.10
33863;DHT22;20158;51.436;-2.742;2023-02-28T15:18:30;14.10;53.00
33863;DHT22;20158;51.436;-2.742;2023-02-28T15:21:07;14.10;53.30
33863;DHT22;20158;51.436;-2.742;2023-02-28T15:23:36;14.10;53.40
33863;DHT22;20158;51.436;-2.742;2023-02-28T15:26:03;14.10;53.40
33863;DHT22;20158;51.436;-2.742;2023-02-28T15:28:29;14.10;53.50
33863;DHT22;20158;51.436;-2.742;2023-02-28T15:30:57;14.10;53.50
33863;DHT22;20158;51.436;-2.742;2023-02-28T15:33:28;14.10;53.50
33863;DHT22;20158;51.436;-2.742;2023-02-28T15:36:14;14.20;53.60
33863;DHT22;20158;51.436;-2.742;2023-02-28T15:38:43;14.20;53.50
33863;DHT22;20158;51.436;-2.742;2023-02-28T15:41:27;14.20;53.40
33863;DHT22;20158;51.436;-2.742;2023-02-28T15:46:52;14.20;53.30
33863;DHT22;20158;51.436;-2.742;2023-02-28T15:49:20;14.20;53.50
33863;DHT22;20158;51.436;-2.742;2023-02-28T15:51:48;14.10;53.50
33863;DHT22;20158;51.436;-2.742;2023-02-28T15:54:21;14.10;53.50
33863;DHT22;20158;51.436;-2.742;2023-02-28T15:56:55;14.10;53.60
33863;DHT22;20158;51.436;-2.742;2023-02-28T15:59:23;14.10;53.70
33863;DHT22;20158;51.436;-2.742;2023-02-28T16:02:16;14.00;53.60
33863;DHT22;20158;51.436;-2.742;2023-02-28T16:07:29;13.90;53.60
33863;DHT22;20158;51.436;-2.742;2023-02-28T16:09:55;13.80;53.60
33863;DHT22;20158;51.436;-2.742;2023-02-28T16:12:26;13.70;53.50
33863;DHT22;20158;51.436;-2.742;2023-02-28T16:14:53;13.70;53.60
33863;DHT22;20158;51.436;-2.742;2023-02-28T16:17:23;13.60;53.50
33863;DHT22;20158;51.436;-2.742;2023-02-28T16:19:50;13.50;53.50
33863;DHT22;20158;51.436;-2.742;2023-02-28T16:22:16;13.50;53.60
33863;DHT22;20158;51.436;-2.742;2023-02-28T16:24:42;13.40;53.50
33863;DHT22;20158;51.436;-2.742;2023-02-28T16:27:16;13.40;53.70
33863;DHT22;20158;51.436;-2.742;2023-02-28T16:29:43;13.40;53.80
33863;DHT22;20158;51.436;-2.742;2023-02-28T16:32:14;13.30;53.70
33863;DHT22;20158;51.436;-2.742;2023-02-28T16:34:41;13.20;53.70
33863;DHT22;20158;51.436;-2.742;2023-02-28T16:37:16;13.20;54.50
33863;DHT22;20158;51.436;-2.742;2023-02-28T16:39:44;13.10;53.70
33863;DHT22;20158;51.436;-2.742;2023-02-28T16:42:25;13.10;53.90
33863;DHT22;20158;51.436;-2.742;2023-02-28T16:44:53;13.00;53.80
33863;DHT22;20158;51.436;-2.742;2023-02-28T16:47:19;13.00;53.90
33863;DHT22;20158;51.436;-2.742;2023-02-28T16:49:45;12.90;53.80
33863;DHT22;20158;51.436;-2.742;2023-02-28T16:52:14;12.90;53.90
33863;DHT22;20158;51.436;-2.742;2023-02-28T16:54:41;12.90;54.10
33863;DHT22;20158;51.436;-2.742;2023-02-28T16:57:20;12.80;54.60
33863;DHT22;20158;51.436;-2.742;2023-02-28T16:59:48;12.70;54.00
33863;DHT22;20158;51.436;-2.742;2023-02-28T17:02:14;12.70;54.20
33863;DHT22;20158;51.436;-2.742;2023-02-28T17:04:42;12.60;54.00
33863;DHT22;20158;51.436;-2.742;2023-02-28T17:07:12;12.60;54.20
33863;DHT22;20158;51.436;-2.742;2023-02-28T17:09:39;12.60;54.20
33863;DHT22;20158;51.436;-2.742;2023-02-28T17:12:05;12.50;54.10
33863;DHT22;20158;51.436;-2.742;2023-02-28T17:14:31;12.50;54.10
33863;DHT22;20158;51.436;-2.742;2023-02-28T17:16:57;12.40;54.00
33863;DHT22;20158;51.436;-2.742;2023-02-28T17:19:23;12.40;54.10
33863;DHT22;20158;51.436;-2.742;2023-02-28T17:21:49;12.40;54.20
33863;DHT22;20158;51.436;-2.742;2023-02-28T17:24:14;12.30;54.10
33863;DHT22;20158;51.436;-2.742;2023-02-28T17:26:41;12.30;54.20
33863;DHT22;20158;51.436;-2.742;2023-02-28T17:29:16;12.30;54.30
33863;DHT22;20158;51.436;-2.742;2023-02-28T17:31:43;12.20;54.30
33863;DHT22;20158;51.436;-2.742;2023-02-28T17:34:09;12.20;54.40
33863;DHT22;20158;51.436;-2.742;2023-02-28T17:36:35;12.10;54.30
33863;DHT22;20158;51.436;-2.742;2023-02-28T17:39:04;12.10;54.40
33863;DHT22;20158;51.436;-2.742;2023-02-28T17:41:34;12.00;54.30
33863;DHT22;20158;51.436;-2.742;2023-02-28T17:44:00;12.00;54.60
33863;DHT22;20158;51.436;-2.742;2023-02-28T17:46:26;12.00;54.80
33863;DHT22;20158;51.436;-2.742;2023-02-28T17:48:54;12.00;55.00
33863;DHT22;20158;51.436;-2.742;2023-02-28T17:51:22;12.00;55.00
33863;DHT22;20158;51.436;-2.742;2023-02-28T17:53:48;11.90;54.90
33863;DHT22;20158;51.436;-2.742;2023-02-28T17:56:20;11.90;54.80
33863;DHT22;20158;51.436;-2.742;2023-02-28T17:58:47;11.80;54.70
33863;DHT22;20158;51.436;-2.742;2023-02-28T18:01:13;11.80;54.90
33863;DHT22;20158;51.436;-2.742;2023-02-28T18:03:39;11.70;54.70
33863;DHT22;20158;51.436;-2.742;2023-02-28T18:06:06;11.70;54.70
33863;DHT22;20158;51.436;-2.742;2023-02-28T18:08:34;11.60;54.60
33863;DHT22;20158;51.436;-2.742;2023-02-28T18:11:01;11.60;54.60
33863;DHT22;20158;51.436;-2.742;2023-02-28T18:13:27;11.50;54.40
33863;DHT22;20158;51.436;-2.742;2023-02-28T18:15:56;11.40;54.40
33863;DHT22;20158;51.436;-2.742;2023-02-28T18:18:21;11.40;54.50